createdAt,value
2018-09-02T00:00:07.697Z,1.609344
2018-09-02T00:00:20.110Z,1.609344
2018-09-02T00:00:32.534Z,1.609344
2018-09-02T00:00:44.959Z,1.609344
2018-09-02T00:00:57.371Z,8.04672
2018-09-02T00:01:10.159Z,6.437376
2018-09-02T00:01:22.594Z,6.437376
2018-09-02T00:01:35.033Z,6.437376
2018-09-02T00:01:47.450Z,6.437376
2018-09-02T00:01:59.876Z,9.656064
2018-09-02T00:02:12.311Z,9.656064
2018-09-02T00:02:24.736Z,9.656064
2018-09-02T00:02:37.166Z,9.656064
2018-09-02T00:02:49.598Z,9.656064
2018-09-02T00:03:02.023Z,9.656064
2018-09-02T00:03:14.457Z,1.609344
2018-09-02T00:03:26.855Z,3.218688
2018-09-02T00:03:39.269Z,3.218688
2018-09-02T00:03:51.690Z,6.437376
2018-09-02T00:04:04.100Z,3.218688
2018-09-02T00:04:16.495Z,3.218688
2018-09-02T00:04:28.959Z,3.218688
2018-09-02T00:04:41.369Z,3.218688
2018-09-02T00:04:53.775Z,3.218688
2018-09-02T00:05:06.201Z,8.04672
2018-09-02T00:05:18.634Z,12.874752
2018-09-02T00:05:31.027Z,12.874752
2018-09-02T00:05:43.430Z,12.874752
2018-09-02T00:05:55.825Z,12.874752
2018-09-02T00:06:08.262Z,8.04672
2018-09-02T00:06:20.689Z,8.04672
2018-09-02T00:06:33.108Z,9.656064
2018-09-02T00:06:45.511Z,9.656064
2018-09-02T00:06:57.906Z,9.656064
2018-09-02T00:07:10.308Z,4.828032
2018-09-02T00:07:22.714Z,4.828032
2018-09-02T00:07:35.128Z,6.437376
2018-09-02T00:07:47.524Z,6.437376
2018-09-02T00:07:59.920Z,14.484096
2018-09-02T00:08:12.327Z,12.874752
2018-09-02T00:08:24.717Z,12.874752
2018-09-02T00:08:37.105Z,12.874752
2018-09-02T00:08:49.540Z,12.874752
2018-09-02T00:09:02.012Z,12.874752
2018-09-02T00:09:14.422Z,3.218688
2018-09-02T00:09:26.859Z,3.218688
2018-09-02T00:09:39.287Z,8.04672
2018-09-02T00:09:51.743Z,8.04672
2018-09-02T00:10:04.190Z,9.656064
2018-09-02T00:10:16.597Z,9.656064
2018-09-02T00:10:28.995Z,11.265408
2018-09-02T00:10:41.530Z,11.265408
2018-09-02T00:10:53.937Z,11.265408
2018-09-02T00:11:06.346Z,3.218688
2018-09-02T00:11:18.760Z,3.218688
2018-09-02T00:11:31.160Z,3.218688
2018-09-02T00:11:43.783Z,3.218688
2018-09-02T00:11:56.184Z,3.218688
2018-09-02T00:12:08.600Z,0
2018-09-02T00:12:21.016Z,1.609344
2018-09-02T00:12:33.415Z,1.609344
2018-09-02T00:12:45.971Z,3.218688
2018-09-02T00:12:58.383Z,3.218688
2018-09-02T00:13:10.794Z,8.04672
2018-09-02T00:13:23.243Z,8.04672
2018-09-02T00:13:35.715Z,8.04672
2018-09-02T00:13:48.123Z,8.04672
2018-09-02T00:14:00.543Z,8.04672
2018-09-02T00:14:12.970Z,3.218688
2018-09-02T00:14:25.399Z,3.218688
2018-09-02T00:14:37.810Z,3.218688
2018-09-02T00:14:50.206Z,3.218688
2018-09-02T00:15:02.616Z,3.218688
2018-09-02T00:15:15.041Z,1.609344
2018-09-02T00:15:27.464Z,3.218688
2018-09-02T00:15:39.864Z,3.218688
2018-09-02T00:15:52.271Z,3.218688
2018-09-02T00:16:04.672Z,0
2018-09-02T00:16:17.058Z,3.218688
2018-09-02T00:16:29.452Z,3.218688
2018-09-02T00:16:41.872Z,3.218688
2018-09-02T00:16:54.324Z,3.218688
2018-09-02T00:17:06.745Z,1.609344
2018-09-02T00:17:19.160Z,3.218688
2018-09-02T00:17:31.572Z,3.218688
2018-09-02T00:17:43.979Z,3.218688
2018-09-02T00:17:56.391Z,3.218688
2018-09-02T00:18:08.805Z,8.04672
2018-09-02T00:18:21.198Z,9.656064
2018-09-02T00:18:33.617Z,9.656064
2018-09-02T00:18:46.035Z,9.656064
2018-09-02T00:18:58.420Z,9.656064
2018-09-02T00:19:10.819Z,8.04672
2018-09-02T00:19:23.234Z,9.656064
2018-09-02T00:19:35.793Z,9.656064
2018-09-02T00:19:48.211Z,9.656064
2018-09-02T00:20:00.618Z,9.656064
2018-09-02T00:20:13.040Z,3.218688
2018-09-02T00:20:25.692Z,3.218688
2018-09-02T00:20:39.242Z,3.218688
2018-09-02T00:20:52.125Z,6.437376
2018-09-02T00:21:04.556Z,3.218688
2018-09-02T00:21:16.960Z,8.04672
2018-09-02T00:21:29.386Z,8.04672
2018-09-02T00:21:41.788Z,9.656064
2018-09-02T00:21:54.203Z,9.656064
2018-09-02T00:22:06.589Z,6.437376
2018-09-02T00:22:18.972Z,8.04672
2018-09-02T00:22:31.389Z,9.656064
2018-09-02T00:22:43.797Z,9.656064
2018-09-02T00:22:56.385Z,9.656064
2018-09-02T00:23:08.946Z,4.828032
2018-09-02T00:23:21.352Z,4.828032
2018-09-02T00:23:34.146Z,4.828032
2018-09-02T00:23:46.563Z,4.828032
2018-09-02T00:23:58.983Z,4.828032
2018-09-02T00:24:11.378Z,1.609344
2018-09-02T00:24:23.790Z,1.609344
2018-09-02T00:24:36.199Z,1.609344
2018-09-02T00:24:48.610Z,1.609344
2018-09-02T00:25:01.033Z,1.609344
2018-09-02T00:25:13.448Z,1.609344
2018-09-02T00:25:25.984Z,1.609344
2018-09-02T00:25:38.583Z,3.218688
2018-09-02T00:25:50.989Z,3.218688
2018-09-02T00:26:03.454Z,9.656064
2018-09-02T00:26:15.907Z,11.265408
2018-09-02T00:26:28.311Z,11.265408
2018-09-02T00:26:40.708Z,11.265408
2018-09-02T00:26:53.130Z,12.874752
2018-09-02T00:27:05.550Z,8.04672
2018-09-02T00:27:17.971Z,8.04672
2018-09-02T00:27:30.363Z,8.04672
2018-09-02T00:27:42.777Z,8.04672
2018-09-02T00:27:55.199Z,8.04672
2018-09-02T00:28:07.614Z,6.437376
2018-09-02T00:28:20.008Z,6.437376
2018-09-02T00:28:32.428Z,6.437376
2018-09-02T00:28:44.876Z,6.437376
2018-09-02T00:28:57.286Z,6.437376
2018-09-02T00:29:09.699Z,3.218688
2018-09-02T00:29:22.108Z,3.218688
2018-09-02T00:29:34.521Z,4.828032
2018-09-02T00:29:46.927Z,9.656064
2018-09-02T00:29:59.335Z,9.656064
2018-09-02T00:30:11.744Z,1.609344
2018-09-02T00:30:24.461Z,1.609344
2018-09-02T00:30:37.047Z,1.609344
2018-09-02T00:30:49.442Z,1.609344
2018-09-02T00:31:01.862Z,1.609344
2018-09-02T00:31:14.318Z,1.609344
2018-09-02T00:31:26.729Z,1.609344
2018-09-02T00:31:39.145Z,1.609344
2018-09-02T00:31:51.880Z,3.218688
2018-09-02T00:32:04.297Z,1.609344
2018-09-02T00:32:16.697Z,1.609344
2018-09-02T00:32:29.113Z,1.609344
2018-09-02T00:32:41.521Z,1.609344
2018-09-02T00:32:54.060Z,4.828032
2018-09-02T00:33:07.463Z,6.437376
2018-09-02T00:33:21.180Z,6.437376
2018-09-02T00:33:34.004Z,6.437376
2018-09-02T00:33:47.050Z,6.437376
2018-09-02T00:34:01.150Z,9.656064
2018-09-02T00:34:13.957Z,9.656064
2018-09-02T00:34:26.386Z,9.656064
2018-09-02T00:34:38.786Z,9.656064
2018-09-02T00:34:51.194Z,9.656064
2018-09-02T00:35:03.730Z,11.265408
2018-09-02T00:35:16.315Z,9.656064
2018-09-02T00:35:28.722Z,9.656064
2018-09-02T00:35:41.144Z,9.656064
2018-09-02T00:35:53.558Z,9.656064
2018-09-02T00:36:05.967Z,6.437376
2018-09-02T00:36:18.538Z,6.437376
2018-09-02T00:36:30.995Z,6.437376
2018-09-02T00:36:43.463Z,6.437376
2018-09-02T00:36:56.025Z,6.437376
2018-09-02T00:37:08.442Z,1.609344
2018-09-02T00:37:20.883Z,6.437376
2018-09-02T00:37:33.297Z,8.04672
2018-09-02T00:37:45.732Z,9.656064
2018-09-02T00:37:58.143Z,11.265408
2018-09-02T00:38:10.569Z,8.04672
2018-09-02T00:38:22.981Z,8.04672
2018-09-02T00:38:35.403Z,8.04672
2018-09-02T00:38:47.815Z,8.04672
2018-09-02T00:39:00.228Z,8.04672
2018-09-02T00:39:12.650Z,1.609344
2018-09-02T00:39:25.057Z,1.609344
2018-09-02T00:39:37.473Z,1.609344
2018-09-02T00:39:49.866Z,1.609344
2018-09-02T00:40:02.333Z,1.609344
2018-09-02T00:40:14.750Z,1.609344
2018-09-02T00:40:27.175Z,1.609344
2018-09-02T00:40:39.632Z,4.828032
2018-09-02T00:40:52.037Z,4.828032
2018-09-02T00:41:04.436Z,3.218688
2018-09-02T00:41:16.862Z,4.828032
2018-09-02T00:41:29.758Z,8.04672
2018-09-02T00:41:42.157Z,8.04672
2018-09-02T00:41:54.553Z,8.04672
2018-09-02T00:42:07.044Z,8.04672
2018-09-02T00:42:19.756Z,9.656064
2018-09-02T00:42:32.181Z,9.656064
2018-09-02T00:42:44.621Z,9.656064
2018-09-02T00:42:57.031Z,9.656064
2018-09-02T00:43:09.433Z,9.656064
2018-09-02T00:43:21.841Z,12.874752
2018-09-02T00:43:34.259Z,12.874752
2018-09-02T00:43:46.666Z,12.874752
2018-09-02T00:43:59.069Z,12.874752
2018-09-02T00:44:11.468Z,9.656064
2018-09-02T00:44:23.869Z,9.656064
2018-09-02T00:44:36.276Z,9.656064
2018-09-02T00:44:48.741Z,11.265408
2018-09-02T00:45:01.145Z,11.265408
2018-09-02T00:45:13.544Z,8.04672
2018-09-02T00:45:25.936Z,8.04672
2018-09-02T00:45:38.318Z,8.04672
2018-09-02T00:45:50.717Z,11.265408
2018-09-02T00:46:03.106Z,11.265408
2018-09-02T00:46:15.516Z,8.04672
2018-09-02T00:46:27.948Z,8.04672
2018-09-02T00:46:40.360Z,8.04672
2018-09-02T00:46:52.769Z,8.04672
2018-09-02T00:47:05.190Z,8.04672
2018-09-02T00:47:17.631Z,8.04672
2018-09-02T00:47:30.060Z,8.04672
2018-09-02T00:47:42.473Z,8.04672
2018-09-02T00:47:54.915Z,8.04672
2018-09-02T00:48:07.343Z,1.609344
2018-09-02T00:48:19.747Z,8.04672
2018-09-02T00:48:32.150Z,8.04672
2018-09-02T00:48:44.555Z,8.04672
2018-09-02T00:48:56.955Z,8.04672
2018-09-02T00:49:09.453Z,6.437376
2018-09-02T00:49:21.852Z,6.437376
2018-09-02T00:49:34.285Z,6.437376
2018-09-02T00:49:46.701Z,6.437376
2018-09-02T00:49:59.158Z,6.437376
2018-09-02T00:50:11.581Z,3.218688
2018-09-02T00:50:23.968Z,6.437376
2018-09-02T00:50:36.368Z,6.437376
2018-09-02T00:50:48.834Z,6.437376
2018-09-02T00:51:01.248Z,6.437376
2018-09-02T00:51:13.666Z,1.609344
2018-09-02T00:51:26.100Z,1.609344
2018-09-02T00:51:38.504Z,1.609344
2018-09-02T00:51:50.919Z,1.609344
2018-09-02T00:52:03.341Z,3.218688
2018-09-02T00:52:15.727Z,3.218688
2018-09-02T00:52:28.127Z,3.218688
2018-09-02T00:52:40.531Z,3.218688
2018-09-02T00:52:52.942Z,3.218688
2018-09-02T00:53:05.568Z,4.828032
2018-09-02T00:53:17.970Z,4.828032
2018-09-02T00:53:30.380Z,4.828032
2018-09-02T00:53:42.799Z,4.828032
2018-09-02T00:53:55.203Z,4.828032
2018-09-02T00:54:07.676Z,3.218688
2018-09-02T00:54:20.094Z,3.218688
2018-09-02T00:54:32.495Z,3.218688
2018-09-02T00:54:44.889Z,3.218688
2018-09-02T00:54:57.316Z,3.218688
2018-09-02T00:55:09.729Z,3.218688
2018-09-02T00:55:22.131Z,6.437376
2018-09-02T00:55:34.525Z,11.265408
2018-09-02T00:55:46.954Z,11.265408
2018-09-02T00:55:59.361Z,11.265408
2018-09-02T00:56:11.768Z,9.656064
2018-09-02T00:56:24.167Z,9.656064
2018-09-02T00:56:36.560Z,9.656064
2018-09-02T00:56:49.203Z,9.656064
2018-09-02T00:57:01.859Z,9.656064
2018-09-02T00:57:14.298Z,3.218688
2018-09-02T00:57:26.714Z,3.218688
2018-09-02T00:57:39.122Z,3.218688
2018-09-02T00:57:51.553Z,3.218688
2018-09-02T00:58:03.964Z,1.609344
2018-09-02T00:58:16.377Z,3.218688
2018-09-02T00:58:28.837Z,6.437376
2018-09-02T00:58:41.277Z,6.437376
2018-09-02T00:58:53.759Z,6.437376
2018-09-02T00:59:06.178Z,1.609344
2018-09-02T00:59:18.597Z,1.609344
2018-09-02T00:59:31.015Z,1.609344
2018-09-02T00:59:43.440Z,4.828032
2018-09-02T00:59:55.850Z,8.04672
2018-09-02T01:00:08.271Z,6.437376
2018-09-02T01:00:20.732Z,8.04672
2018-09-02T01:00:33.164Z,8.04672
2018-09-02T01:00:45.612Z,8.04672
2018-09-02T01:00:58.067Z,8.04672
2018-09-02T01:01:10.682Z,6.437376
2018-09-02T01:01:23.105Z,8.04672
2018-09-02T01:01:35.522Z,8.04672
2018-09-02T01:01:47.955Z,9.656064
2018-09-02T01:02:00.380Z,9.656064
2018-09-02T01:02:12.867Z,3.218688
2018-09-02T01:02:25.306Z,4.828032
2018-09-02T01:02:37.730Z,4.828032
2018-09-02T01:02:50.266Z,4.828032
2018-09-02T01:03:02.686Z,8.04672
2018-09-02T01:03:15.102Z,6.437376
2018-09-02T01:03:27.503Z,6.437376
2018-09-02T01:03:40.072Z,6.437376
2018-09-02T01:03:52.493Z,6.437376
2018-09-02T01:04:04.895Z,8.04672
2018-09-02T01:04:17.328Z,8.04672
2018-09-02T01:04:29.738Z,8.04672
2018-09-02T01:04:42.160Z,11.265408
2018-09-02T01:04:54.581Z,11.265408
2018-09-02T01:05:06.982Z,6.437376
2018-09-02T01:05:19.387Z,6.437376
2018-09-02T01:05:31.810Z,6.437376
2018-09-02T01:05:44.220Z,6.437376
2018-09-02T01:05:56.635Z,6.437376
2018-09-02T01:06:09.046Z,0
2018-09-02T01:06:21.508Z,0
2018-09-02T01:06:33.903Z,3.218688
2018-09-02T01:06:46.314Z,4.828032
2018-09-02T01:06:58.770Z,4.828032
2018-09-02T01:07:11.179Z,1.609344
2018-09-02T01:07:23.598Z,1.609344
2018-09-02T01:07:36.022Z,4.828032
2018-09-02T01:07:48.445Z,6.437376
2018-09-02T01:08:00.840Z,6.437376
2018-09-02T01:08:13.234Z,1.609344
2018-09-02T01:08:25.630Z,1.609344
2018-09-02T01:08:38.020Z,6.437376
2018-09-02T01:08:50.407Z,8.04672
2018-09-02T01:09:02.873Z,9.656064
2018-09-02T01:09:15.337Z,6.437376
2018-09-02T01:09:27.763Z,6.437376
2018-09-02T01:09:40.173Z,6.437376
2018-09-02T01:09:52.585Z,6.437376
2018-09-02T01:10:05.029Z,3.218688
2018-09-02T01:10:17.420Z,3.218688
2018-09-02T01:10:29.896Z,3.218688
2018-09-02T01:10:42.318Z,3.218688
2018-09-02T01:10:54.719Z,3.218688
2018-09-02T01:11:07.113Z,1.609344
2018-09-02T01:11:19.523Z,1.609344
2018-09-02T01:11:31.927Z,1.609344
2018-09-02T01:11:44.433Z,1.609344
2018-09-02T01:11:56.908Z,1.609344
2018-09-02T01:12:09.308Z,3.218688
2018-09-02T01:12:21.719Z,3.218688
2018-09-02T01:12:34.120Z,4.828032
2018-09-02T01:12:46.683Z,4.828032
2018-09-02T01:12:59.098Z,8.04672
2018-09-02T01:13:11.512Z,9.656064
2018-09-02T01:13:23.933Z,9.656064
2018-09-02T01:13:36.342Z,9.656064
2018-09-02T01:13:48.754Z,9.656064
2018-09-02T01:14:01.172Z,9.656064
2018-09-02T01:14:13.571Z,6.437376
2018-09-02T01:14:26.054Z,6.437376
2018-09-02T01:14:38.487Z,9.656064
2018-09-02T01:14:50.926Z,9.656064
2018-09-02T01:15:03.352Z,9.656064
2018-09-02T01:15:15.743Z,8.04672
2018-09-02T01:15:28.148Z,8.04672
2018-09-02T01:15:40.550Z,8.04672
2018-09-02T01:15:52.948Z,8.04672
2018-09-02T01:16:05.359Z,3.218688
2018-09-02T01:16:17.760Z,8.04672
2018-09-02T01:16:30.160Z,8.04672
2018-09-02T01:16:42.594Z,8.04672
2018-09-02T01:16:55.004Z,8.04672
2018-09-02T01:17:07.405Z,8.04672
2018-09-02T01:17:19.836Z,8.04672
2018-09-02T01:17:32.229Z,8.04672
2018-09-02T01:17:44.764Z,8.04672
2018-09-02T01:17:57.180Z,8.04672
2018-09-02T01:18:09.605Z,1.609344
2018-09-02T01:18:22.017Z,6.437376
2018-09-02T01:18:34.429Z,6.437376
2018-09-02T01:18:46.851Z,8.04672
2018-09-02T01:18:59.263Z,8.04672
2018-09-02T01:19:11.682Z,8.04672
2018-09-02T01:19:24.103Z,8.04672
2018-09-02T01:19:36.575Z,8.04672
2018-09-02T01:19:49.023Z,9.656064
2018-09-02T01:20:01.445Z,9.656064
2018-09-02T01:20:13.897Z,9.656064
2018-09-02T01:20:26.331Z,9.656064
2018-09-02T01:20:38.740Z,9.656064
2018-09-02T01:20:51.155Z,9.656064
2018-09-02T01:21:03.543Z,9.656064
2018-09-02T01:21:16.171Z,8.04672
2018-09-02T01:21:28.575Z,8.04672
2018-09-02T01:21:40.986Z,8.04672
2018-09-02T01:21:53.409Z,8.04672
2018-09-02T01:22:05.813Z,4.828032
2018-09-02T01:22:18.228Z,4.828032
2018-09-02T01:22:30.657Z,4.828032
2018-09-02T01:22:43.104Z,6.437376
2018-09-02T01:22:55.798Z,8.04672
2018-09-02T01:23:09.548Z,8.04672
2018-09-02T01:23:22.634Z,8.04672
2018-09-02T01:23:35.446Z,8.04672
2018-09-02T01:23:47.854Z,8.04672
2018-09-02T01:24:00.263Z,8.04672
2018-09-02T01:24:12.666Z,1.609344
2018-09-02T01:24:25.096Z,3.218688
2018-09-02T01:24:37.502Z,3.218688
2018-09-02T01:24:49.904Z,3.218688
2018-09-02T01:25:02.309Z,3.218688
2018-09-02T01:25:14.716Z,1.609344
2018-09-02T01:25:27.275Z,3.218688
2018-09-02T01:25:39.843Z,3.218688
2018-09-02T01:25:52.303Z,3.218688
2018-09-02T01:26:04.692Z,1.609344
2018-09-02T01:26:17.110Z,1.609344
2018-09-02T01:26:29.541Z,3.218688
2018-09-02T01:26:41.956Z,6.437376
2018-09-02T01:26:54.351Z,6.437376
2018-09-02T01:27:06.843Z,4.828032
2018-09-02T01:27:19.260Z,6.437376
2018-09-02T01:27:31.660Z,6.437376
2018-09-02T01:27:44.115Z,6.437376
2018-09-02T01:27:56.492Z,6.437376
2018-09-02T01:28:08.895Z,1.609344
2018-09-02T01:28:21.310Z,1.609344
2018-09-02T01:28:33.713Z,3.218688
2018-09-02T01:28:46.188Z,3.218688
2018-09-02T01:28:58.592Z,3.218688
2018-09-02T01:29:10.995Z,1.609344
2018-09-02T01:29:23.460Z,1.609344
2018-09-02T01:29:35.937Z,1.609344
2018-09-02T01:29:48.345Z,3.218688
2018-09-02T01:30:00.742Z,3.218688
2018-09-02T01:30:13.168Z,3.218688
2018-09-02T01:30:25.596Z,6.437376
2018-09-02T01:30:38.036Z,8.04672
2018-09-02T01:30:50.497Z,9.656064
2018-09-02T01:31:02.896Z,11.265408
2018-09-02T01:31:15.306Z,9.656064
2018-09-02T01:31:27.753Z,9.656064
2018-09-02T01:31:40.216Z,9.656064
2018-09-02T01:31:52.759Z,9.656064
2018-09-02T01:32:05.181Z,4.828032
2018-09-02T01:32:17.590Z,11.265408
2018-09-02T01:32:30.158Z,11.265408
2018-09-02T01:32:42.574Z,11.265408
2018-09-02T01:32:54.978Z,11.265408
2018-09-02T01:33:07.397Z,8.04672
2018-09-02T01:33:19.808Z,9.656064
2018-09-02T01:33:32.254Z,9.656064
2018-09-02T01:33:44.681Z,9.656064
2018-09-02T01:33:57.098Z,9.656064
2018-09-02T01:34:09.613Z,6.437376
2018-09-02T01:34:22.025Z,6.437376
2018-09-02T01:34:34.460Z,9.656064
2018-09-02T01:34:46.897Z,11.265408
2018-09-02T01:34:59.289Z,11.265408
2018-09-02T01:35:11.727Z,8.04672
2018-09-02T01:35:24.183Z,8.04672
2018-09-02T01:35:36.598Z,8.04672
2018-09-02T01:35:49.032Z,8.04672
2018-09-02T01:36:01.444Z,8.04672
2018-09-02T01:36:13.993Z,8.04672
2018-09-02T01:36:26.396Z,8.04672
2018-09-02T01:36:38.882Z,9.656064
2018-09-02T01:36:51.311Z,9.656064
2018-09-02T01:37:03.714Z,9.656064
2018-09-02T01:37:16.142Z,9.656064
2018-09-02T01:37:28.542Z,11.265408
2018-09-02T01:37:40.944Z,11.265408
2018-09-02T01:37:53.342Z,11.265408
2018-09-02T01:38:05.769Z,6.437376
2018-09-02T01:38:18.191Z,8.04672
2018-09-02T01:38:30.600Z,8.04672
2018-09-02T01:38:43.009Z,8.04672
2018-09-02T01:38:55.403Z,8.04672
2018-09-02T01:39:07.829Z,3.218688
2018-09-02T01:39:20.248Z,3.218688
2018-09-02T01:39:32.674Z,3.218688
2018-09-02T01:39:45.056Z,3.218688
2018-09-02T01:39:57.469Z,4.828032
2018-09-02T01:40:09.881Z,3.218688
2018-09-02T01:40:22.298Z,3.218688
2018-09-02T01:40:34.700Z,3.218688
2018-09-02T01:40:47.110Z,6.437376
2018-09-02T01:40:59.512Z,6.437376
2018-09-02T01:41:11.917Z,4.828032
2018-09-02T01:41:24.496Z,4.828032
2018-09-02T01:41:36.904Z,4.828032
2018-09-02T01:41:49.321Z,4.828032
2018-09-02T01:42:01.794Z,4.828032
2018-09-02T01:42:14.342Z,6.437376
2018-09-02T01:42:26.751Z,9.656064
2018-09-02T01:42:39.177Z,9.656064
2018-09-02T01:42:51.659Z,9.656064
2018-09-02T01:43:04.069Z,6.437376
2018-09-02T01:43:16.499Z,8.04672
2018-09-02T01:43:28.918Z,8.04672
2018-09-02T01:43:41.352Z,8.04672
2018-09-02T01:43:53.761Z,8.04672
2018-09-02T01:44:06.191Z,3.218688
2018-09-02T01:44:18.628Z,6.437376
2018-09-02T01:44:31.074Z,6.437376
2018-09-02T01:44:43.499Z,6.437376
2018-09-02T01:44:55.909Z,6.437376
2018-09-02T01:45:08.332Z,3.218688
2018-09-02T01:45:20.828Z,3.218688
2018-09-02T01:45:33.249Z,4.828032
2018-09-02T01:45:45.717Z,8.04672
2018-09-02T01:45:58.149Z,8.04672
2018-09-02T01:46:10.553Z,9.656064
2018-09-02T01:46:22.996Z,9.656064
2018-09-02T01:46:35.423Z,9.656064
2018-09-02T01:46:47.822Z,9.656064
2018-09-02T01:47:00.277Z,9.656064
2018-09-02T01:47:12.685Z,8.04672
2018-09-02T01:47:25.101Z,8.04672
2018-09-02T01:47:37.489Z,8.04672
2018-09-02T01:47:49.908Z,8.04672
2018-09-02T01:48:02.331Z,8.04672
2018-09-02T01:48:14.746Z,3.218688
2018-09-02T01:48:27.160Z,9.656064
2018-09-02T01:48:39.576Z,9.656064
2018-09-02T01:48:52.045Z,9.656064
2018-09-02T01:49:04.452Z,4.828032
2018-09-02T01:49:17.270Z,8.04672
2018-09-02T01:49:29.659Z,8.04672
2018-09-02T01:49:42.094Z,8.04672
2018-09-02T01:49:54.499Z,8.04672
2018-09-02T01:50:06.921Z,11.265408
2018-09-02T01:50:19.333Z,12.874752
2018-09-02T01:50:31.744Z,12.874752
2018-09-02T01:50:44.140Z,12.874752
2018-09-02T01:50:56.535Z,12.874752
2018-09-02T01:51:08.938Z,8.04672
2018-09-02T01:51:21.349Z,11.265408
2018-09-02T01:51:33.756Z,11.265408
2018-09-02T01:51:46.179Z,11.265408
2018-09-02T01:51:58.597Z,11.265408
2018-09-02T01:52:11.018Z,9.656064
2018-09-02T01:52:23.408Z,9.656064
2018-09-02T01:52:35.818Z,9.656064
2018-09-02T01:52:48.223Z,9.656064
2018-09-02T01:53:00.639Z,9.656064
2018-09-02T01:53:13.038Z,3.218688
2018-09-02T01:53:25.447Z,8.04672
2018-09-02T01:53:37.852Z,14.484096
2018-09-02T01:53:50.258Z,14.484096
2018-09-02T01:54:02.658Z,14.484096
2018-09-02T01:54:15.088Z,9.656064
2018-09-02T01:54:27.499Z,9.656064
2018-09-02T01:54:39.905Z,9.656064
2018-09-02T01:54:52.316Z,9.656064
2018-09-02T01:55:04.719Z,8.04672
2018-09-02T01:55:17.130Z,11.265408
2018-09-02T01:55:29.535Z,12.874752
2018-09-02T01:55:41.922Z,12.874752
2018-09-02T01:55:54.317Z,12.874752
2018-09-02T01:56:06.705Z,6.437376
2018-09-02T01:56:19.107Z,6.437376
2018-09-02T01:56:31.584Z,6.437376
2018-09-02T01:56:44.063Z,8.04672
2018-09-02T01:56:56.704Z,8.04672
2018-09-02T01:57:09.119Z,8.04672
2018-09-02T01:57:21.530Z,8.04672
2018-09-02T01:57:33.943Z,8.04672
2018-09-02T01:57:46.385Z,8.04672
2018-09-02T01:57:58.803Z,8.04672
2018-09-02T01:58:11.215Z,8.04672
2018-09-02T01:58:23.611Z,8.04672
2018-09-02T01:58:36.012Z,8.04672
2018-09-02T01:58:48.423Z,8.04672
2018-09-02T01:59:00.832Z,8.04672
2018-09-02T01:59:13.249Z,8.04672
2018-09-02T01:59:25.666Z,8.04672
2018-09-02T01:59:38.087Z,8.04672
2018-09-02T01:59:50.503Z,8.04672
2018-09-02T02:00:02.922Z,8.04672
2018-09-02T02:00:15.325Z,3.218688
2018-09-02T02:00:27.751Z,6.437376
2018-09-02T02:00:40.166Z,6.437376
2018-09-02T02:00:52.597Z,6.437376
2018-09-02T02:01:05.019Z,4.828032
2018-09-02T02:01:17.567Z,6.437376
2018-09-02T02:01:30.008Z,6.437376
2018-09-02T02:01:42.491Z,6.437376
2018-09-02T02:01:54.919Z,8.04672
2018-09-02T02:02:07.342Z,14.484096
2018-09-02T02:02:19.773Z,14.484096
2018-09-02T02:02:32.184Z,14.484096
2018-09-02T02:02:44.596Z,14.484096
2018-09-02T02:02:57.102Z,14.484096
2018-09-02T02:03:09.522Z,6.437376
2018-09-02T02:03:21.939Z,6.437376
2018-09-02T02:03:34.352Z,8.04672
2018-09-02T02:03:46.756Z,9.656064
2018-09-02T02:03:59.181Z,9.656064
2018-09-02T02:04:11.582Z,6.437376
2018-09-02T02:04:23.988Z,6.437376
2018-09-02T02:04:36.395Z,6.437376
2018-09-02T02:04:48.835Z,6.437376
2018-09-02T02:05:01.271Z,11.265408
2018-09-02T02:05:13.694Z,4.828032
2018-09-02T02:05:26.077Z,6.437376
2018-09-02T02:05:38.486Z,6.437376
2018-09-02T02:05:50.910Z,8.04672
2018-09-02T02:06:03.327Z,8.04672
2018-09-02T02:06:15.742Z,4.828032
2018-09-02T02:06:28.163Z,4.828032
2018-09-02T02:06:40.556Z,4.828032
2018-09-02T02:06:52.996Z,14.484096
2018-09-02T02:07:05.411Z,12.874752
2018-09-02T02:07:17.812Z,12.874752
2018-09-02T02:07:30.237Z,12.874752
2018-09-02T02:07:42.642Z,12.874752
2018-09-02T02:07:55.075Z,12.874752
2018-09-02T02:08:07.502Z,6.437376
2018-09-02T02:08:19.925Z,8.04672
2018-09-02T02:08:32.324Z,8.04672
2018-09-02T02:08:44.824Z,8.04672
2018-09-02T02:08:57.252Z,8.04672
2018-09-02T02:09:09.664Z,6.437376
2018-09-02T02:09:22.069Z,6.437376
2018-09-02T02:09:34.487Z,6.437376
2018-09-02T02:09:46.905Z,6.437376
2018-09-02T02:09:59.307Z,6.437376
2018-09-02T02:10:11.698Z,3.218688
2018-09-02T02:10:24.109Z,6.437376
2018-09-02T02:10:36.511Z,6.437376
2018-09-02T02:10:48.915Z,6.437376
2018-09-02T02:11:01.335Z,6.437376
2018-09-02T02:11:13.745Z,6.437376
2018-09-02T02:11:26.159Z,6.437376
2018-09-02T02:11:38.577Z,6.437376
2018-09-02T02:11:51.151Z,6.437376
2018-09-02T02:12:03.567Z,6.437376
2018-09-02T02:12:15.957Z,3.218688
2018-09-02T02:12:28.378Z,8.04672
2018-09-02T02:12:40.841Z,8.04672
2018-09-02T02:12:53.402Z,8.04672
2018-09-02T02:13:05.809Z,1.609344
2018-09-02T02:13:18.211Z,6.437376
2018-09-02T02:13:30.620Z,8.04672
2018-09-02T02:13:43.036Z,9.656064
2018-09-02T02:13:55.433Z,9.656064
2018-09-02T02:14:07.843Z,6.437376
2018-09-02T02:14:20.306Z,6.437376
2018-09-02T02:14:32.730Z,6.437376
2018-09-02T02:14:45.140Z,6.437376
2018-09-02T02:14:57.565Z,9.656064
2018-09-02T02:15:09.981Z,11.265408
2018-09-02T02:15:22.402Z,11.265408
2018-09-02T02:15:34.854Z,11.265408
2018-09-02T02:15:47.285Z,11.265408
2018-09-02T02:15:59.742Z,11.265408
2018-09-02T02:16:12.162Z,3.218688
2018-09-02T02:16:24.627Z,3.218688
2018-09-02T02:16:37.036Z,3.218688
2018-09-02T02:16:49.450Z,3.218688
2018-09-02T02:17:01.857Z,3.218688
2018-09-02T02:17:14.255Z,1.609344
2018-09-02T02:17:26.654Z,1.609344
2018-09-02T02:17:39.057Z,3.218688
2018-09-02T02:17:51.470Z,3.218688
2018-09-02T02:18:03.860Z,3.218688
2018-09-02T02:18:16.261Z,8.04672
2018-09-02T02:18:28.722Z,12.874752
2018-09-02T02:18:41.202Z,12.874752
2018-09-02T02:18:53.671Z,12.874752
2018-09-02T02:19:06.076Z,3.218688
2018-09-02T02:19:18.504Z,8.04672
2018-09-02T02:19:30.902Z,8.04672
2018-09-02T02:19:43.395Z,8.04672
2018-09-02T02:19:55.796Z,8.04672
2018-09-02T02:20:08.227Z,6.437376
2018-09-02T02:20:20.632Z,8.04672
2018-09-02T02:20:33.020Z,11.265408
2018-09-02T02:20:45.474Z,14.484096
2018-09-02T02:20:57.878Z,14.484096
2018-09-02T02:21:10.349Z,6.437376
2018-09-02T02:21:22.762Z,6.437376
2018-09-02T02:21:35.163Z,6.437376
2018-09-02T02:21:47.572Z,6.437376
2018-09-02T02:21:59.983Z,6.437376
2018-09-02T02:22:12.396Z,8.04672
2018-09-02T02:22:24.804Z,8.04672
2018-09-02T02:22:37.201Z,8.04672
2018-09-02T02:22:49.642Z,8.04672
2018-09-02T02:23:02.044Z,9.656064
2018-09-02T02:23:14.463Z,6.437376
2018-09-02T02:23:26.861Z,6.437376
2018-09-02T02:23:39.466Z,6.437376
2018-09-02T02:23:51.881Z,6.437376
2018-09-02T02:24:04.276Z,1.609344
2018-09-02T02:24:16.867Z,1.609344
2018-09-02T02:24:29.270Z,1.609344
2018-09-02T02:24:41.674Z,8.04672
2018-09-02T02:24:54.070Z,9.656064
2018-09-02T02:25:06.498Z,3.218688
2018-09-02T02:25:18.913Z,8.04672
2018-09-02T02:25:31.630Z,8.04672
2018-09-02T02:25:44.030Z,8.04672
2018-09-02T02:25:56.498Z,8.04672
2018-09-02T02:26:08.917Z,8.04672
2018-09-02T02:26:21.327Z,8.04672
2018-09-02T02:26:33.720Z,8.04672
2018-09-02T02:26:46.126Z,8.04672